Stations météo

réclame
Mon MeteoGroup
Fylingdales, Grande-Bretagne (3281): Température de l'air & dewpoint: 13.10.2019 01:00:00 - 19.10.2019 01:00:00 (BST)Fylingdales, Grande-Bretagne (3281): Vitesse du vent & gusts: 13.10.2019 01:00:00 - 19.10.2019 01:00:00 (BST)Fylingdales, Grande-Bretagne (3281): Direction du vent: 13.10.2019 01:00:00 - 19.10.2019 01:00:00 (BST)Fylingdales, Grande-Bretagne (3281): Quantités de précipitations: 13.10.2019 01:00:00 - 19.10.2019 01:00:00 (BST)
Date & Time tt [°C] td [°C] ff [km/h] ff [knt] fx [km/h] fx [knt] dd rr [mm]
19.10.2019 01:00:00 - - - - - - - -
19.10.2019 00:00:00 8,0 7,7 16 9 - - S 0,0
18.10.2019 23:00:00 7,8 7,3 11 6 - - SSE 0,0
18.10.2019 22:00:00 7,7 7,2 13 7 - - S 0,2
18.10.2019 21:00:00 7,8 6,5 18 10 - - S 0,0
18.10.2019 20:00:00 7,8 6,7 15 8 - - SSW 0,0
18.10.2019 19:00:00 8,5 6,7 16 9 - - S 0,0
18.10.2019 18:00:00 8,9 6,9 15 8 - - SSW 0,0
18.10.2019 17:00:00 9,7 7,0 16 9 - - SW 0,0
18.10.2019 16:00:00 10,3 7,1 18 10 - - SSW 0,0
18.10.2019 15:00:00 9,9 7,3 15 8 - - SW 0,0
18.10.2019 14:00:00 10,6 6,8 21 11 - - SW 0,0
18.10.2019 13:00:00 10,1 7,6 16 9 - - WSW 0,0
18.10.2019 12:00:00 8,8 7,3 26 14 - - SW 0,0
18.10.2019 11:00:00 8,1 7,6 24 13 - - SW 0,0
18.10.2019 10:00:00 7,8 7,6 24 13 - - SSW 0,0
18.10.2019 09:00:00 8,1 8,1 21 11 - - S 0,0
18.10.2019 08:00:00 8,0 8,0 15 8 - - SSE 0,2
18.10.2019 07:00:00 7,9 7,9 18 10 - - S 1,6
18.10.2019 06:00:00 8,4 8,4 18 10 - - SSE 2,4
18.10.2019 05:00:00 8,2 8,2 15 8 - - S 0,4
18.10.2019 04:00:00 8,2 8,2 15 8 - - S 0,0
18.10.2019 03:00:00 8,2 8,2 16 9 - - S 0,0
18.10.2019 02:00:00 7,9 7,8 16 9 - - SSE 0,0
18.10.2019 01:00:00 8,3 8,1 16 9 - - SSE 0,0
18.10.2019 00:00:00 8,5 8,3 18 10 - - S 0,0
17.10.2019 23:00:00 8,7 8,5 21 11 - - SSE 0,0
17.10.2019 22:00:00 9,0 8,4 21 11 - - SSE 0,0
17.10.2019 21:00:00 8,5 8,1 22 12 - - SSE 0,0
17.10.2019 20:00:00 8,3 7,6 24 13 - - SSE 0,0
17.10.2019 19:00:00 8,5 7,3 16 9 - - SSE 0,0
17.10.2019 18:00:00 9,2 7,5 18 10 - - SSE 0,0
17.10.2019 17:00:00 10,2 7,6 21 11 - - SSE 0,0
17.10.2019 16:00:00 11,1 6,3 22 12 - - S 0,0
17.10.2019 15:00:00 11,6 5,9 24 13 - - S 0,0
17.10.2019 14:00:00 11,5 5,8 34 18 - - S 0,0
17.10.2019 13:00:00 11,3 7,2 28 15 - - S 0,0
17.10.2019 12:00:00 9,4 7,0 22 12 - - SSW 0,0
17.10.2019 11:00:00 7,8 6,4 16 9 - - SSW 0,0
17.10.2019 10:00:00 6,2 5,5 16 9 - - SSW 0,0
17.10.2019 09:00:00 5,0 4,5 15 8 - - SW 0,0
17.10.2019 08:00:00 3,7 3,3 11 6 - - SSW 0,2
17.10.2019 07:00:00 3,9 3,5 16 9 - - SSW 0,0
17.10.2019 06:00:00 3,8 3,6 13 7 - - SSW 0,0
17.10.2019 05:00:00 4,2 4,0 18 10 - - SSW 0,0
17.10.2019 04:00:00 3,4 3,3 16 9 - - SSW 0,0
17.10.2019 03:00:00 3,3 3,2 16 9 - - SSW 0,0
17.10.2019 02:00:00 4,2 4,0 16 9 - - SW 0,0
17.10.2019 01:00:00 3,2 2,8 15 8 - - SSW 0,0
17.10.2019 00:00:00 4,8 4,0 13 7 - - SW 0,0
16.10.2019 23:00:00 5,5 4,4 13 7 - - SW 0,0
16.10.2019 22:00:00 6,3 5,1 15 8 - - WSW 0,0
16.10.2019 21:00:00 5,9 4,8 16 9 - - WSW 0,0
16.10.2019 20:00:00 7,2 5,4 18 10 - - SW 0,0
16.10.2019 19:00:00 7,8 5,6 15 8 - - WSW 0,0
16.10.2019 18:00:00 9,2 6,4 16 9 - - WSW 0,0
16.10.2019 17:00:00 11,0 7,6 15 8 - - W 0,0
16.10.2019 16:00:00 11,7 8,0 22 12 - - W 0,0
16.10.2019 15:00:00 11,2 9,3 18 10 - - WSW 0,0
16.10.2019 14:00:00 11,3 11,1 18 10 - - WSW 0,0
16.10.2019 13:00:00 11,3 11,3 24 13 - - SSW 0,4
16.10.2019 12:00:00 11,1 11,1 26 14 - - S 0,6
16.10.2019 11:00:00 10,5 10,5 24 13 - - SSE 1,2
16.10.2019 10:00:00 10,1 10,1 24 13 - - SSE 0,4
16.10.2019 09:00:00 9,6 9,4 24 13 - - SSE 0,0
16.10.2019 08:00:00 8,9 8,7 26 14 - - SSE 0,0
16.10.2019 07:00:00 9,0 8,5 22 12 - - S 0,0
16.10.2019 06:00:00 8,8 8,1 28 15 - - S 0,0
16.10.2019 05:00:00 8,0 7,6 24 13 - - SSW 0,0
16.10.2019 04:00:00 8,6 8,5 28 15 46 25 S 0,0
16.10.2019 03:00:00 9,4 9,4 29 16 - - S 0,0
16.10.2019 02:00:00 9,5 9,5 24 13 - - S 0,0
16.10.2019 01:00:00 8,8 8,4 13 7 - - SE 0,0
16.10.2019 00:00:00 8,0 7,7 18 10 - - S 0,0
15.10.2019 23:00:00 8,0 7,1 16 9 - - SSW 0,0
15.10.2019 22:00:00 8,1 7,2 18 10 - - SSW 0,0
15.10.2019 21:00:00 8,2 7,6 16 9 - - SSW 0,0
15.10.2019 20:00:00 9,1 8,9 18 10 - - SW 0,2
15.10.2019 19:00:00 9,8 9,3 13 7 - - SSW 0,0
15.10.2019 18:00:00 10,0 8,8 15 8 - - SSW 0,0
15.10.2019 17:00:00 10,5 9,1 18 10 - - SSW 0,0
15.10.2019 16:00:00 10,3 8,9 13 7 - - SSW 0,0
15.10.2019 15:00:00 11,2 8,9 11 6 - - W 0,0
15.10.2019 14:00:00 10,6 8,7 13 7 - - W 0,0
15.10.2019 13:00:00 10,4 9,5 16 9 - - WNW 0,0
15.10.2019 12:00:00 9,8 9,8 16 9 - - W 0,0
15.10.2019 11:00:00 9,3 9,3 22 12 - - WNW 0,0
15.10.2019 10:00:00 9,0 9,0 22 12 - - NW 0,0
15.10.2019 09:00:00 8,8 8,8 26 14 - - NW 0,2
15.10.2019 08:00:00 8,7 8,7 26 14 - - NNW 0,4
15.10.2019 07:00:00 8,7 8,7 21 11 - - NNW 0,4
15.10.2019 06:00:00 8,8 8,8 21 11 - - N 0,6
15.10.2019 05:00:00 8,7 8,7 26 14 - - N 0,4
15.10.2019 04:00:00 8,8 8,8 24 13 - - N 0,4
15.10.2019 03:00:00 8,7 8,7 24 13 - - NNE 0,2
15.10.2019 02:00:00 8,5 8,5 28 15 - - NNE 2,4
15.10.2019 01:00:00 8,5 8,5 31 17 46 25 NE 2,6
15.10.2019 00:00:00 8,5 8,5 34 18 48 26 NE 2,6
14.10.2019 23:00:00 8,4 8,4 28 15 - - NE 0,8
14.10.2019 22:00:00 8,2 8,0 34 18 48 26 ENE 0,8
14.10.2019 21:00:00 8,0 7,4 26 14 - - ENE 1,6
14.10.2019 20:00:00 8,9 8,7 22 12 - - E 1,8
14.10.2019 19:00:00 9,1 8,8 9 5 - - E 0,6
14.10.2019 18:00:00 9,4 9,1 8 4 - - SE 0,2
14.10.2019 17:00:00 10,0 9,5 15 8 - - SE 0,2
14.10.2019 16:00:00 10,7 9,2 15 8 - - ESE 0,0
14.10.2019 15:00:00 11,2 9,2 15 8 - - SE 0,0
14.10.2019 14:00:00 10,8 8,8 13 7 - - SE 0,0
14.10.2019 13:00:00 11,0 9,4 11 6 - - SE 0,0
14.10.2019 12:00:00 10,6 8,3 15 8 - - SE 0,0
14.10.2019 11:00:00 10,3 9,4 8 4 - - SE 0,0
14.10.2019 10:00:00 8,3 8,3 8 4 - - S 0,0
14.10.2019 09:00:00 6,9 6,9 8 4 - - S 0,0
14.10.2019 08:00:00 5,8 5,8 8 4 - - SSW 0,0
14.10.2019 07:00:00 6,3 6,3 8 4 - - SSW 0,0
14.10.2019 06:00:00 6,6 6,6 13 7 - - SSW 0,0
14.10.2019 05:00:00 6,7 6,7 16 9 - - SSW 0,0
14.10.2019 04:00:00 6,2 6,2 5 3 - - WSW 0,0
14.10.2019 03:00:00 5,8 5,7 11 6 - - SSW 0,0
14.10.2019 02:00:00 6,2 5,8 21 11 - - SW 0,0
14.10.2019 01:00:00 7,1 6,4 21 11 46 25 SW 0,0
14.10.2019 00:00:00 7,4 6,6 18 10 - - WSW 0,0
13.10.2019 23:00:00 8,2 7,8 18 10 - - WSW 0,0
13.10.2019 22:00:00 8,9 8,9 18 10 - - WSW 0,2
13.10.2019 21:00:00 8,9 8,9 11 6 - - SW 0,0
13.10.2019 20:00:00 9,2 9,2 8 4 - - WSW 0,0
13.10.2019 19:00:00 9,1 9,1 8 4 - - W 0,2
13.10.2019 18:00:00 9,5 9,5 11 6 - - WNW 1,2
13.10.2019 17:00:00 9,5 9,5 11 6 - - NW 1,6
13.10.2019 16:00:00 9,7 9,6 11 6 - - NNW 1,0
13.10.2019 15:00:00 9,5 9,5 15 8 - - NNE 1,4
13.10.2019 14:00:00 9,4 9,4 13 7 - - NE 1,0
13.10.2019 13:00:00 9,4 9,3 18 10 - - ENE 0,6
13.10.2019 12:00:00 9,3 9,1 15 8 - - E 0,6
13.10.2019 11:00:00 9,3 9,3 11 6 - - SE 0,4
13.10.2019 10:00:00 9,5 9,5 9 5 - - SSE 0,2
13.10.2019 09:00:00 9,5 9,5 13 7 - - SSE 0,0
13.10.2019 08:00:00 9,2 9,2 11 6 - - SSE 0,0
13.10.2019 07:00:00 8,9 8,9 9 5 - - S 0,0
13.10.2019 06:00:00 8,7 8,7 11 6 - - SSE 0,0
13.10.2019 05:00:00 9,1 9,1 11 6 - - S 0,0
13.10.2019 04:00:00 9,1 9,0 9 5 - - S 0,0
13.10.2019 03:00:00 9,1 8,9 9 5 - - SSW 0,0
13.10.2019 02:00:00 8,6 8,2 8 4 - - SW 0,0
13.10.2019 01:00:00 8,2 7,4 9 5 - - S 0,0

tt = Température de l'air
td = dewpoint
ff = Vitesse du vent
fx = gusts
dd = Direction du vent
rr = Quantités de précipitations

stations d'obs. à proximité